createdAt,value
2019-04-20T00:01:25.747Z,90.60
2019-04-20T00:03:50.701Z,90.50
2019-04-20T00:06:19.632Z,90.30
2019-04-20T00:08:55.497Z,90.20
2019-04-20T00:11:27.331Z,90.50
2019-04-20T00:13:57.735Z,90.70
2019-04-20T00:16:18.942Z,90.70
2019-04-20T00:18:52.128Z,90.90
2019-04-20T00:21:38.851Z,91.00
2019-04-20T00:24:20.052Z,91.30
2019-04-20T00:27:08.488Z,91.50
2019-04-20T00:29:29.422Z,91.30
2019-04-20T00:31:56.702Z,91.30
2019-04-20T00:34:24.098Z,91.70
2019-04-20T00:36:45.311Z,92.00
2019-04-20T00:39:16.426Z,92.20
2019-04-20T00:41:51.501Z,92.40
2019-04-20T00:44:20.702Z,92.60
2019-04-20T00:46:58.520Z,93.00
2019-04-20T00:49:30.684Z,93.20
2019-04-20T00:52:17.177Z,93.10
2019-04-20T00:54:16.011Z,92.80
2019-04-20T00:56:47.739Z,92.80
2019-04-20T00:59:30.225Z,92.60
2019-04-20T01:02:03.928Z,92.70
2019-04-20T01:04:38.966Z,92.50
2019-04-20T01:07:06.293Z,92.40
2019-04-20T01:09:31.458Z,92.20
2019-04-20T01:11:58.588Z,92.40
2019-04-20T01:14:37.800Z,92.80
2019-04-20T01:17:07.005Z,93.00
2019-04-20T01:19:27.424Z,93.20
2019-04-20T01:22:02.374Z,93.30
2019-04-20T01:24:34.796Z,93.20
2019-04-20T01:27:00.816Z,93.10
2019-04-20T01:29:36.957Z,92.90
2019-04-20T01:32:12.799Z,93.10
2019-04-20T01:34:42.747Z,93.30
2019-04-20T01:37:14.661Z,93.50
2019-04-20T01:39:37.102Z,93.60
2019-04-20T01:42:00.633Z,93.60
2019-04-20T01:44:35.934Z,93.40
2019-04-20T01:47:03.165Z,93.30
2019-04-20T01:49:32.924Z,93.30
2019-04-20T01:52:07.515Z,93.30
2019-04-20T01:54:48.385Z,93.50
2019-04-20T01:57:24.794Z,93.80
2019-04-20T01:59:58.293Z,94.10
2019-04-20T02:02:28.326Z,94.10
2019-04-20T02:05:04.804Z,94.00
2019-04-20T02:07:35.085Z,93.70
2019-04-20T02:10:03.672Z,93.40
2019-04-20T02:12:33.848Z,93.20
2019-04-20T02:15:02.751Z,92.50
2019-04-20T02:17:38.540Z,92.20
2019-04-20T02:20:15.631Z,92.40
2019-04-20T02:22:46.417Z,92.40
2019-04-20T02:24:59.595Z,92.30
2019-04-20T02:27:36.906Z,92.30
2019-04-20T02:30:29.834Z,92.50
2019-04-20T02:33:09.468Z,93.00
2019-04-20T02:36:10.348Z,93.30
2019-04-20T02:38:42.191Z,94.00
2019-04-20T02:43:24.932Z,94.40
2019-04-20T02:45:53.388Z,94.50
2019-04-20T02:48:25.935Z,94.50
2019-04-20T02:53:36.385Z,94.20
2019-04-20T02:55:55.531Z,94.30
2019-04-20T02:58:34.404Z,94.60
2019-04-20T03:00:52.606Z,94.90
2019-04-20T03:03:11.299Z,94.80
2019-04-20T03:05:39.452Z,94.60
2019-04-20T03:08:17.423Z,94.40
2019-04-20T03:10:58.527Z,94.50
2019-04-20T03:13:18.316Z,95.00
2019-04-20T03:15:48.537Z,95.40
2019-04-20T03:18:19.262Z,95.60
2019-04-20T03:20:53.081Z,95.60
2019-04-20T03:23:33.542Z,95.70
2019-04-20T03:25:58.323Z,95.80
2019-04-20T03:28:23.593Z,95.90
2019-04-20T03:31:36.780Z,95.90
2019-04-20T03:33:51.409Z,96.00
2019-04-20T03:36:16.256Z,96.10
2019-04-20T03:38:33.090Z,96.10
2019-04-20T03:40:54.258Z,96.20
2019-04-20T03:43:12.379Z,96.10
2019-04-20T03:45:49.826Z,95.90
2019-04-20T03:48:32.575Z,95.90
2019-04-20T03:51:04.588Z,96.00
2019-04-20T03:53:35.071Z,96.10
2019-04-20T03:56:05.148Z,95.90
2019-04-20T03:58:45.611Z,95.90
2019-04-20T04:01:33.266Z,95.80
2019-04-20T04:03:59.900Z,95.80
2019-04-20T04:06:19.833Z,95.80
2019-04-20T04:08:48.622Z,95.80
2019-04-20T04:11:24.422Z,95.70
2019-04-20T04:13:37.713Z,95.70
2019-04-20T04:16:10.161Z,95.80
2019-04-20T04:18:40.794Z,96.00
2019-04-20T04:21:11.500Z,96.20
2019-04-20T04:23:56.229Z,96.30
2019-04-20T04:26:26.156Z,96.30
2019-04-20T04:28:53.412Z,96.30
2019-04-20T04:31:28.086Z,96.50
2019-04-20T04:33:59.321Z,96.80
2019-04-20T04:36:21.091Z,96.80
2019-04-20T04:39:01.037Z,96.60
2019-04-20T04:41:28.218Z,96.40
2019-04-20T04:43:53.959Z,96.10
2019-04-20T04:46:08.521Z,96.00
2019-04-20T04:48:43.979Z,95.90
2019-04-20T04:51:19.607Z,96.20
2019-04-20T04:53:52.458Z,96.40
2019-04-20T04:56:16.933Z,96.50
2019-04-20T04:58:42.629Z,96.50
2019-04-20T05:01:18.771Z,96.60
2019-04-20T05:04:02.832Z,96.30
2019-04-20T05:06:26.505Z,96.30
2019-04-20T05:08:49.834Z,96.40
2019-04-20T05:11:13.593Z,96.60
2019-04-20T05:13:50.596Z,96.80
2019-04-20T05:16:27.518Z,96.80
2019-04-20T05:19:05.052Z,96.60
2019-04-20T05:21:38.869Z,96.40
2019-04-20T05:24:42.716Z,96.50
2019-04-20T05:27:23.017Z,95.90
2019-04-20T05:29:32.803Z,94.30
2019-04-20T05:32:05.902Z,93.20
2019-04-20T05:34:52.568Z,92.70
2019-04-20T05:37:27.218Z,91.90
2019-04-20T05:39:55.868Z,91.20
2019-04-20T05:42:28.159Z,90.40
2019-04-20T05:45:08.633Z,89.20
2019-04-20T05:47:23.376Z,86.80
2019-04-20T05:49:50.112Z,85.00
2019-04-20T05:52:43.832Z,83.90
2019-04-20T05:54:56.233Z,82.10
2019-04-20T05:57:31.910Z,81.40
2019-04-20T06:00:03.563Z,80.90
2019-04-20T06:02:22.862Z,80.30
2019-04-20T06:07:26.830Z,78.90
2019-04-20T06:09:59.423Z,77.70
2019-04-20T06:12:28.430Z,76.80
2019-04-20T06:15:05.580Z,76.60
2019-04-20T06:17:53.102Z,75.40
2019-04-20T06:20:33.434Z,74.70
2019-04-20T06:23:09.421Z,73.20
2019-04-20T06:28:05.153Z,72.50
2019-04-20T06:30:31.962Z,71.00
2019-04-20T06:34:10.116Z,70.90
2019-04-20T06:39:13.471Z,71.40
2019-04-20T06:41:26.513Z,71.80
2019-04-20T06:43:45.817Z,71.60
2019-04-20T06:46:19.534Z,72.50
2019-04-20T06:48:49.319Z,72.60
2019-04-20T06:51:18.677Z,73.10
2019-04-20T06:53:47.561Z,73.60
2019-04-20T06:56:27.600Z,74.20
2019-04-20T06:58:58.797Z,74.50
2019-04-20T07:01:19.737Z,74.50
2019-04-20T07:04:04.251Z,75.70
2019-04-20T07:09:00.650Z,76.40
2019-04-20T07:11:25.118Z,76.50
2019-04-20T07:13:45.879Z,76.50
2019-04-20T07:16:28.319Z,76.40
2019-04-20T07:19:15.365Z,76.30
2019-04-20T07:24:48.314Z,76.10
2019-04-20T07:27:06.353Z,74.00
2019-04-20T07:29:43.257Z,74.20
2019-04-20T07:32:03.997Z,73.30
2019-04-20T07:34:38.726Z,70.90
2019-04-20T07:37:40.214Z,67.00
2019-04-20T07:39:44.880Z,63.50
2019-04-20T07:42:16.807Z,60.20
2019-04-20T07:44:49.888Z,58.50
2019-04-20T07:47:13.818Z,58.10
2019-04-20T07:49:41.362Z,55.70
2019-04-20T07:51:52.227Z,54.70
2019-04-20T07:54:50.716Z,53.80
2019-04-20T07:57:10.230Z,51.90
2019-04-20T07:59:30.022Z,50.30
2019-04-20T08:02:24.957Z,49.90
2019-04-20T08:04:42.495Z,49.70
2019-04-20T08:07:03.409Z,49.70
2019-04-20T08:09:37.393Z,50.20
2019-04-20T08:12:26.466Z,47.80
2019-04-20T08:14:56.801Z,47.60
2019-04-20T08:17:30.336Z,48.70
2019-04-20T08:19:48.439Z,48.60
2019-04-20T08:22:24.624Z,47.20
2019-04-20T08:24:45.371Z,47.50
2019-04-20T08:27:06.522Z,46.50
2019-04-20T08:29:45.160Z,46.50
2019-04-20T08:32:28.286Z,46.40
2019-04-20T08:35:05.082Z,46.10
2019-04-20T08:37:28.792Z,46.40
2019-04-20T08:42:39.946Z,45.50
2019-04-20T08:45:03.886Z,44.40
2019-04-20T08:47:45.877Z,45.70
2019-04-20T08:50:12.003Z,46.30
2019-04-20T08:52:55.463Z,46.00
2019-04-20T08:55:04.715Z,43.80
2019-04-20T08:57:15.968Z,42.40
2019-04-20T08:59:48.249Z,42.50
2019-04-20T09:02:17.070Z,43.50
2019-04-20T09:04:56.411Z,43.10
2019-04-20T09:07:22.608Z,44.50
2019-04-20T09:10:14.657Z,43.60
2019-04-20T09:12:35.428Z,43.70
2019-04-20T09:14:48.793Z,43.80
2019-04-20T09:17:32.583Z,43.60
2019-04-20T09:20:06.066Z,42.80
2019-04-20T09:22:40.262Z,41.90
2019-04-20T09:27:40.590Z,43.40
2019-04-20T09:30:20.895Z,43.00
2019-04-20T09:32:58.871Z,44.50
2019-04-20T09:35:30.163Z,45.20
2019-04-20T09:38:00.239Z,43.90
2019-04-20T09:40:35.500Z,43.00
2019-04-20T09:42:47.946Z,43.60
2019-04-20T09:45:27.756Z,42.60
2019-04-20T09:47:52.879Z,43.30
2019-04-20T09:50:31.841Z,42.90
2019-04-20T09:53:04.994Z,42.40
2019-04-20T09:55:31.219Z,44.20
2019-04-20T09:58:01.093Z,44.20
2019-04-20T10:00:39.805Z,43.20
2019-04-20T10:02:50.527Z,43.50
2019-04-20T10:05:19.802Z,43.30
2019-04-20T10:07:56.867Z,40.40
2019-04-20T10:10:28.760Z,41.20
2019-04-20T10:12:50.059Z,39.50
2019-04-20T10:15:23.078Z,40.30
2019-04-20T10:17:49.892Z,41.10
2019-04-20T10:20:24.405Z,40.30
2019-04-20T10:22:48.881Z,39.00
2019-04-20T10:25:18.331Z,38.00
2019-04-20T10:27:47.466Z,38.40
2019-04-20T10:30:16.699Z,37.20
2019-04-20T10:32:48.986Z,37.90
2019-04-20T10:35:18.303Z,37.10
2019-04-20T10:38:03.636Z,38.00
2019-04-20T10:40:43.246Z,36.40
2019-04-20T10:43:03.145Z,38.00
2019-04-20T10:45:33.063Z,37.50
2019-04-20T10:48:01.656Z,36.60
2019-04-20T10:50:32.146Z,35.50
2019-04-20T10:53:01.536Z,35.80
2019-04-20T10:55:31.330Z,36.50
2019-04-20T10:57:59.953Z,36.40
2019-04-20T11:00:46.094Z,35.60
2019-04-20T11:03:15.845Z,35.80
2019-04-20T11:05:44.833Z,34.90
2019-04-20T11:08:14.740Z,34.00
2019-04-20T11:10:55.456Z,35.10
2019-04-20T11:13:15.187Z,35.70
2019-04-20T11:15:44.318Z,35.00
2019-04-20T11:18:13.367Z,34.50
2019-04-20T11:20:42.002Z,37.20
2019-04-20T11:23:10.743Z,34.90
2019-04-20T11:25:40.022Z,34.70
2019-04-20T11:28:08.480Z,34.40
2019-04-20T11:30:38.052Z,33.20
2019-04-20T11:33:06.724Z,34.50
2019-04-20T11:35:39.208Z,33.20
2019-04-20T11:38:05.557Z,33.70
2019-04-20T11:40:35.030Z,34.00
2019-04-20T11:43:03.862Z,33.00
2019-04-20T11:45:32.979Z,30.90
2019-04-20T11:48:01.580Z,33.00
2019-04-20T11:50:30.011Z,32.20
2019-04-20T11:52:59.316Z,31.00
2019-04-20T11:55:28.637Z,31.90
2019-04-20T11:57:58.280Z,32.10
2019-04-20T12:00:46.903Z,31.10
2019-04-20T12:03:25.021Z,31.60
2019-04-20T12:05:53.156Z,30.80
2019-04-20T12:08:18.480Z,31.80
2019-04-20T12:10:52.034Z,30.90
2019-04-20T12:13:18.469Z,30.00
2019-04-20T12:15:47.683Z,29.80
2019-04-20T12:18:17.969Z,28.70
2019-04-20T12:20:47.078Z,26.90
2019-04-20T12:23:16.009Z,27.40
2019-04-20T12:25:46.190Z,28.30
2019-04-20T12:28:15.769Z,26.20
2019-04-20T12:30:44.265Z,26.40
2019-04-20T12:33:13.606Z,27.20
2019-04-20T12:35:42.681Z,25.90
2019-04-20T12:38:11.171Z,25.80
2019-04-20T12:40:39.936Z,26.00
2019-04-20T12:43:08.961Z,26.40
2019-04-20T12:45:37.843Z,26.50
2019-04-20T12:48:07.909Z,25.90
2019-04-20T12:50:37.422Z,25.20
2019-04-20T12:53:06.506Z,24.70
2019-04-20T12:55:35.084Z,23.20
2019-04-20T12:58:04.842Z,24.20
2019-04-20T13:00:45.893Z,23.60
2019-04-20T13:03:14.945Z,22.50
2019-04-20T13:05:43.805Z,22.40
2019-04-20T13:08:13.742Z,23.00
2019-04-20T13:10:44.798Z,22.10
2019-04-20T13:13:23.980Z,22.60
2019-04-20T13:15:54.362Z,21.20
2019-04-20T13:18:27.450Z,21.40
2019-04-20T13:20:58.050Z,21.70
2019-04-20T13:23:26.821Z,21.90
2019-04-20T13:25:55.432Z,21.70
2019-04-20T13:28:26.090Z,21.40
2019-04-20T13:30:54.045Z,21.00
2019-04-20T13:33:23.105Z,20.80
2019-04-20T13:35:52.318Z,21.00
2019-04-20T13:38:22.392Z,21.50
2019-04-20T13:40:51.480Z,22.30
2019-04-20T13:43:20.095Z,22.10
2019-04-20T13:45:48.974Z,22.30
2019-04-20T13:48:17.532Z,22.20
2019-04-20T13:50:46.399Z,21.80
2019-04-20T13:53:15.037Z,21.10
2019-04-20T13:55:43.632Z,20.70
2019-04-20T13:58:14.001Z,21.40
2019-04-20T14:00:50.360Z,19.10
2019-04-20T14:03:18.817Z,20.10
2019-04-20T14:05:48.781Z,20.90
2019-04-20T14:08:21.133Z,21.10
2019-04-20T14:10:49.673Z,21.00
2019-04-20T14:13:20.415Z,21.90
2019-04-20T14:15:49.232Z,21.30
2019-04-20T14:18:19.321Z,22.30
2019-04-20T14:20:48.019Z,21.00
2019-04-20T14:23:17.062Z,20.70
2019-04-20T14:25:46.959Z,20.40
2019-04-20T14:28:15.592Z,19.30
2019-04-20T14:30:44.128Z,19.60
2019-04-20T14:33:12.844Z,19.30
2019-04-20T14:35:41.466Z,19.40
2019-04-20T14:38:10.290Z,19.60
2019-04-20T14:40:39.747Z,19.80
2019-04-20T14:43:08.900Z,19.40
2019-04-20T14:45:38.548Z,19.60
2019-04-20T14:48:07.913Z,18.70
2019-04-20T14:50:37.961Z,18.50
2019-04-20T14:53:07.431Z,18.10
2019-04-20T14:55:35.901Z,19.10
2019-04-20T14:58:06.073Z,19.00
2019-04-20T15:00:45.799Z,18.10
2019-04-20T15:03:28.509Z,16.70
2019-04-20T15:06:00.092Z,16.90
2019-04-20T15:08:30.296Z,15.40
2019-04-20T15:10:58.890Z,14.90
2019-04-20T15:13:28.756Z,15.80
2019-04-20T15:15:58.919Z,15.30
2019-04-20T15:18:33.519Z,15.00
2019-04-20T15:21:03.840Z,14.50
2019-04-20T15:23:33.193Z,14.80
2019-04-20T15:26:02.429Z,15.40
2019-04-20T15:28:32.369Z,16.90
2019-04-20T15:31:00.937Z,17.00
2019-04-20T15:33:30.759Z,16.70
2019-04-20T15:36:00.037Z,17.10
2019-04-20T15:38:29.154Z,17.60
2019-04-20T15:40:57.720Z,17.40
2019-04-20T15:43:27.840Z,17.60
2019-04-20T15:45:57.344Z,17.30
2019-04-20T15:48:26.024Z,17.00
2019-04-20T15:50:55.991Z,18.00
2019-04-20T15:53:25.824Z,17.70
2019-04-20T15:55:55.602Z,19.50
2019-04-20T15:58:24.235Z,19.60
2019-04-20T16:00:52.827Z,19.50
2019-04-20T16:03:39.189Z,19.10
2019-04-20T16:06:09.534Z,19.50
2019-04-20T16:08:42.256Z,20.40
2019-04-20T16:11:11.268Z,20.40
2019-04-20T16:13:44.024Z,21.10
2019-04-20T16:16:10.152Z,20.60
2019-04-20T16:18:39.174Z,20.60
2019-04-20T16:21:13.232Z,20.70
2019-04-20T16:23:42.965Z,21.70
2019-04-20T16:26:29.395Z,21.10
2019-04-20T16:28:59.577Z,20.60
2019-04-20T16:31:28.802Z,21.60
2019-04-20T16:33:58.735Z,21.90
2019-04-20T16:36:28.473Z,20.90
2019-04-20T16:38:57.406Z,22.50
2019-04-20T16:41:26.400Z,24.00
2019-04-20T16:43:55.410Z,20.80
2019-04-20T16:46:25.669Z,21.00
2019-04-20T16:48:55.027Z,20.40
2019-04-20T16:51:24.946Z,20.60
2019-04-20T16:53:53.939Z,21.00
2019-04-20T16:56:22.596Z,21.80
2019-04-20T16:58:54.575Z,21.90
2019-04-20T17:01:21.561Z,21.70
2019-04-20T17:03:58.997Z,22.50
2019-04-20T17:06:20.754Z,22.80
2019-04-20T17:08:49.418Z,23.60
2019-04-20T17:11:21.638Z,23.90
2019-04-20T17:13:54.766Z,24.90
2019-04-20T17:16:21.738Z,24.00
2019-04-20T17:18:51.851Z,23.20
2019-04-20T17:21:25.258Z,23.40
2019-04-20T17:23:51.303Z,23.60
2019-04-20T17:26:23.008Z,23.30
2019-04-20T17:28:55.455Z,23.50
2019-04-20T17:31:27.674Z,23.30
2019-04-20T17:34:04.661Z,23.50
2019-04-20T17:36:31.137Z,23.60
2019-04-20T17:39:01.478Z,23.60
2019-04-20T17:41:48.926Z,23.60
2019-04-20T17:44:16.982Z,23.90
2019-04-20T17:46:43.613Z,24.50
2019-04-20T17:49:14.859Z,24.60
2019-04-20T17:51:54.859Z,24.70
2019-04-20T17:54:19.877Z,25.20
2019-04-20T17:56:48.727Z,25.20
2019-04-20T17:59:17.284Z,25.70
2019-04-20T18:02:02.792Z,25.70
2019-04-20T18:04:55.929Z,25.70
2019-04-20T18:07:04.348Z,25.70
2019-04-20T18:09:44.781Z,26.60
2019-04-20T18:11:58.549Z,26.70
2019-04-20T18:14:40.120Z,26.60
2019-04-20T18:17:11.468Z,26.90
2019-04-20T18:19:42.857Z,27.00
2019-04-20T18:22:13.852Z,27.00
2019-04-20T18:25:07.590Z,27.60
2019-04-20T18:27:31.967Z,28.00
2019-04-20T18:30:03.737Z,28.10
2019-04-20T18:32:23.639Z,28.50
2019-04-20T18:35:00.849Z,28.90
2019-04-20T18:37:28.766Z,29.50
2019-04-20T18:40:04.989Z,30.90
2019-04-20T18:42:32.856Z,35.10
2019-04-20T18:45:20.049Z,38.00
2019-04-20T18:47:45.579Z,40.70
2019-04-20T18:50:09.498Z,42.00
2019-04-20T18:52:29.449Z,43.00
2019-04-20T18:54:59.377Z,44.30
2019-04-20T18:57:29.666Z,45.60
2019-04-20T18:59:59.179Z,46.20
2019-04-20T19:02:33.570Z,46.60
2019-04-20T19:05:00.323Z,46.60
2019-04-20T19:07:33.355Z,47.70
2019-04-20T19:10:05.755Z,49.10
2019-04-20T19:12:39.592Z,49.70
2019-04-20T19:15:27.941Z,50.90
2019-04-20T19:17:52.117Z,51.80
2019-04-20T19:20:14.052Z,51.10
2019-04-20T19:22:44.019Z,51.70
2019-04-20T19:25:18.379Z,51.50
2019-04-20T19:27:48.857Z,52.00
2019-04-20T19:30:24.578Z,51.50
2019-04-20T19:33:02.395Z,53.70
2019-04-20T19:35:26.110Z,54.00
2019-04-20T19:37:56.233Z,54.50
2019-04-20T19:40:28.720Z,55.20
2019-04-20T19:42:59.312Z,55.10
2019-04-20T19:45:41.723Z,55.20
2019-04-20T19:48:04.369Z,55.80
2019-04-20T19:50:56.056Z,56.60
2019-04-20T19:53:12.524Z,57.10
2019-04-20T19:55:31.495Z,57.30
2019-04-20T19:58:02.571Z,58.00
2019-04-20T20:00:20.894Z,59.00
2019-04-20T20:02:49.968Z,60.10
2019-04-20T20:05:25.042Z,61.20
2019-04-20T20:07:52.123Z,61.90
2019-04-20T20:10:20.822Z,62.00
2019-04-20T20:12:55.099Z,61.80
2019-04-20T20:15:26.090Z,62.80
2019-04-20T20:18:14.051Z,63.50
2019-04-20T20:20:41.470Z,64.20
2019-04-20T20:22:53.420Z,64.90
2019-04-20T20:25:25.731Z,64.80
2019-04-20T20:27:57.534Z,65.20
2019-04-20T20:30:27.900Z,65.60
2019-04-20T20:33:04.801Z,65.00
2019-04-20T20:35:25.403Z,65.50
2019-04-20T20:37:56.990Z,65.40
2019-04-20T20:40:29.758Z,65.20
2019-04-20T20:43:04.813Z,65.70
2019-04-20T20:45:32.822Z,66.60
2019-04-20T20:48:09.451Z,67.50
2019-04-20T20:50:42.424Z,68.80
2019-04-20T20:53:06.020Z,70.00
2019-04-20T20:55:32.060Z,70.70
2019-04-20T20:57:59.218Z,71.20
2019-04-20T21:00:34.260Z,71.30
2019-04-20T21:03:00.866Z,71.30
2019-04-20T21:05:23.996Z,71.50
2019-04-20T21:07:53.417Z,72.10
2019-04-20T21:10:30.061Z,73.20
2019-04-20T21:12:56.517Z,74.10
2019-04-20T21:15:24.602Z,74.10
2019-04-20T21:18:16.342Z,73.30
2019-04-20T21:20:45.300Z,73.70
2019-04-20T21:23:09.929Z,74.10
2019-04-20T21:25:33.267Z,74.20
2019-04-20T21:27:55.057Z,74.60
2019-04-20T21:30:32.474Z,74.90
2019-04-20T21:32:59.987Z,75.70
2019-04-20T21:35:24.032Z,76.00
2019-04-20T21:38:00.471Z,76.10
2019-04-20T21:40:30.140Z,76.30
2019-04-20T21:43:00.341Z,75.90
2019-04-20T21:45:29.061Z,75.50
2019-04-20T21:47:54.583Z,75.50
2019-04-20T21:50:40.616Z,75.20
2019-04-20T21:52:58.557Z,75.70
2019-04-20T21:55:23.761Z,76.20
2019-04-20T21:57:55.465Z,76.50
2019-04-20T22:00:45.661Z,77.40
2019-04-20T22:03:11.871Z,77.10
2019-04-20T22:05:42.290Z,77.70
2019-04-20T22:08:14.062Z,78.30
2019-04-20T22:10:41.263Z,79.00
2019-04-20T22:13:09.945Z,79.30
2019-04-20T22:15:46.701Z,80.10
2019-04-20T22:18:12.596Z,81.40
2019-04-20T22:20:53.230Z,82.60
2019-04-20T22:23:21.580Z,83.30
2019-04-20T22:25:56.296Z,83.00
2019-04-20T22:28:09.331Z,82.60
2019-04-20T22:30:37.962Z,83.20
2019-04-20T22:33:08.187Z,83.60
2019-04-20T22:35:44.393Z,83.80
2019-04-20T22:38:18.848Z,84.40
2019-04-20T22:40:47.385Z,84.60
2019-04-20T22:43:17.979Z,84.30
2019-04-20T22:45:50.541Z,85.00
2019-04-20T22:48:18.016Z,85.60
2019-04-20T22:51:12.319Z,86.10
2019-04-20T22:53:33.951Z,86.20
2019-04-20T22:56:08.314Z,86.10
2019-04-20T22:58:28.885Z,86.00
2019-04-20T23:00:54.333Z,86.00
2019-04-20T23:03:17.235Z,86.50
2019-04-20T23:05:46.994Z,87.00
2019-04-20T23:08:16.912Z,87.30
2019-04-20T23:10:48.009Z,87.50
2019-04-20T23:13:15.738Z,87.60
2019-04-20T23:15:50.058Z,86.70
2019-04-20T23:18:14.324Z,87.50
2019-04-20T23:20:44.024Z,87.30
2019-04-20T23:23:19.147Z,86.80
2019-04-20T23:25:43.024Z,87.30
2019-04-20T23:28:14.773Z,87.30
2019-04-20T23:30:42.812Z,87.80
2019-04-20T23:33:11.877Z,88.10
2019-04-20T23:35:43.769Z,88.60
2019-04-20T23:38:15.793Z,88.90
2019-04-20T23:40:41.746Z,89.00
2019-04-20T23:43:33.343Z,89.40
2019-04-20T23:46:22.316Z,89.60
2019-04-20T23:49:06.616Z,89.80
2019-04-20T23:51:54.209Z,90.10
2019-04-20T23:54:12.560Z,90.10
2019-04-20T23:56:35.535Z,89.80
2019-04-20T23:59:04.474Z,90.00
